sensor_id;sensor_type;location;lat;lon;timestamp;pressure;altitude;pressure_sealevel;temperature;humidity
70559;BME280;58108;48.094;11.838;2022-09-03T00:00:06;95132.75;;;10.93;91.19
70559;BME280;58108;48.094;11.838;2022-09-03T00:02:44;95133.28;;;10.87;90.51
70559;BME280;58108;48.094;11.838;2022-09-03T00:05:25;95133.88;;;10.69;92.40
70559;BME280;58108;48.094;11.838;2022-09-03T00:10:34;95140.09;;;10.47;93.46
70559;BME280;58108;48.094;11.838;2022-09-03T00:13:04;95134.16;;;10.45;92.98
70559;BME280;58108;48.094;11.838;2022-09-03T00:15:33;95132.34;;;10.45;93.51
70559;BME280;58108;48.094;11.838;2022-09-03T00:18:08;95133.78;;;10.49;92.66
70559;BME280;58108;48.094;11.838;2022-09-03T00:20:41;95142.06;;;10.55;92.43
70559;BME280;58108;48.094;11.838;2022-09-03T00:23:13;95145.41;;;10.66;92.39
70559;BME280;58108;48.094;11.838;2022-09-03T00:25:51;95142.50;;;10.60;92.58
70559;BME280;58108;48.094;11.838;2022-09-03T00:28:21;95139.09;;;10.69;92.33
70559;BME280;58108;48.094;11.838;2022-09-03T00:30:55;95141.16;;;10.65;92.71
70559;BME280;58108;48.094;11.838;2022-09-03T00:33:27;95141.22;;;11.16;89.85
70559;BME280;58108;48.094;11.838;2022-09-03T00:36:06;95136.31;;;11.23;88.78
70559;BME280;58108;48.094;11.838;2022-09-03T00:38:36;95142.59;;;11.11;89.67
70559;BME280;58108;48.094;11.838;2022-09-03T00:41:37;95142.63;;;10.58;92.20
70559;BME280;58108;48.094;11.838;2022-09-03T00:44:24;95147.75;;;10.60;93.07
70559;BME280;58108;48.094;11.838;2022-09-03T00:47:03;95143.66;;;10.67;92.84
70559;BME280;58108;48.094;11.838;2022-09-03T00:52:49;95145.63;;;10.75;93.80
70559;BME280;58108;48.094;11.838;2022-09-03T01:00:55;95142.59;;;10.48;95.71
70559;BME280;58108;48.094;11.838;2022-09-03T01:03:36;95145.56;;;10.44;96.40
70559;BME280;58108;48.094;11.838;2022-09-03T01:06:16;95144.97;;;10.19;97.01
70559;BME280;58108;48.094;11.838;2022-09-03T01:09:10;95153.47;;;10.11;98.19
70559;BME280;58108;48.094;11.838;2022-09-03T01:15:05;95153.84;;;10.28;96.47
70559;BME280;58108;48.094;11.838;2022-09-03T01:17:44;95157.34;;;10.17;97.35
70559;BME280;58108;48.094;11.838;2022-09-03T01:20:34;95146.50;;;10.21;97.09
70559;BME280;58108;48.094;11.838;2022-09-03T01:34:22;95151.47;;;10.24;94.34
70559;BME280;58108;48.094;11.838;2022-09-03T01:37:51;95152.19;;;10.26;94.73
70559;BME280;58108;48.094;11.838;2022-09-03T01:40:31;95143.19;;;10.19;95.03
70559;BME280;58108;48.094;11.838;2022-09-03T01:43:12;95150.78;;;10.22;94.54
70559;BME280;58108;48.094;11.838;2022-09-03T01:45:54;95150.28;;;10.07;95.56
70559;BME280;58108;48.094;11.838;2022-09-03T01:48:32;95148.31;;;9.88;95.93
70559;BME280;58108;48.094;11.838;2022-09-03T01:51:24;95149.47;;;9.95;96.37
70559;BME280;58108;48.094;11.838;2022-09-03T01:53:59;95151.47;;;10.24;94.60
70559;BME280;58108;48.094;11.838;2022-09-03T01:59:29;95148.13;;;10.34;95.62
70559;BME280;58108;48.094;11.838;2022-09-03T02:02:19;95137.59;;;10.45;94.77
70559;BME280;58108;48.094;11.838;2022-09-03T02:07:29;95139.09;;;10.90;91.88
70559;BME280;58108;48.094;11.838;2022-09-03T02:09:58;95135.09;;;10.65;94.45
70559;BME280;58108;48.094;11.838;2022-09-03T02:12:23;95131.47;;;10.56;93.77
70559;BME280;58108;48.094;11.838;2022-09-03T02:14:48;95130.66;;;10.65;93.57
70559;BME280;58108;48.094;11.838;2022-09-03T02:17:13;95122.22;;;10.52;94.29
70559;BME280;58108;48.094;11.838;2022-09-03T02:19:39;95120.81;;;10.48;94.85
70559;BME280;58108;48.094;11.838;2022-09-03T02:22:05;95126.78;;;10.38;94.89
70559;BME280;58108;48.094;11.838;2022-09-03T02:24:31;95122.56;;;10.26;95.70
70559;BME280;58108;48.094;11.838;2022-09-03T02:26:56;95120.34;;;10.21;97.00
70559;BME280;58108;48.094;11.838;2022-09-03T02:29:22;95114.91;;;10.34;95.70
70559;BME280;58108;48.094;11.838;2022-09-03T02:31:48;95114.44;;;10.29;96.65
70559;BME280;58108;48.094;11.838;2022-09-03T02:34:13;95116.72;;;10.55;94.68
70559;BME280;58108;48.094;11.838;2022-09-03T02:36:41;95120.47;;;10.62;92.96
70559;BME280;58108;48.094;11.838;2022-09-03T02:39:07;95127.09;;;10.24;95.01
70559;BME280;58108;48.094;11.838;2022-09-03T02:41:33;95126.16;;;10.04;95.74
70559;BME280;58108;48.094;11.838;2022-09-03T02:44:08;95121.06;;;9.91;96.64
70559;BME280;58108;48.094;11.838;2022-09-03T02:46:39;95128.97;;;10.12;95.83
70559;BME280;58108;48.094;11.838;2022-09-03T02:49:05;95144.56;;;10.02;96.60
70559;BME280;58108;48.094;11.838;2022-09-03T02:51:40;95137.03;;;9.88;97.01
70559;BME280;58108;48.094;11.838;2022-09-03T02:54:06;95139.75;;;9.86;98.07
70559;BME280;58108;48.094;11.838;2022-09-03T02:56:32;95132.25;;;9.93;98.17
70559;BME280;58108;48.094;11.838;2022-09-03T02:58:57;95135.69;;;9.93;97.23
70559;BME280;58108;48.094;11.838;2022-09-03T03:01:23;95140.13;;;9.81;97.58
70559;BME280;58108;48.094;11.838;2022-09-03T03:03:48;95128.13;;;10.11;96.18
70559;BME280;58108;48.094;11.838;2022-09-03T03:06:14;95128.41;;;9.97;96.54
70559;BME280;58108;48.094;11.838;2022-09-03T03:08:39;95135.88;;;10.02;96.45
70559;BME280;58108;48.094;11.838;2022-09-03T03:11:05;95128.69;;;10.15;95.21
70559;BME280;58108;48.094;11.838;2022-09-03T03:13:31;95131.97;;;10.29;94.04
70559;BME280;58108;48.094;11.838;2022-09-03T03:16:03;95136.69;;;10.35;93.52
70559;BME280;58108;48.094;11.838;2022-09-03T03:18:30;95134.00;;;10.25;94.02
70559;BME280;58108;48.094;11.838;2022-09-03T03:20:56;95146.78;;;9.85;96.32
70559;BME280;58108;48.094;11.838;2022-09-03T03:23:22;95144.47;;;9.60;98.00
70559;BME280;58108;48.094;11.838;2022-09-03T03:25:47;95149.59;;;9.61;97.92
70559;BME280;58108;48.094;11.838;2022-09-03T03:28:13;95149.88;;;9.47;98.61
70559;BME280;58108;48.094;11.838;2022-09-03T03:30:39;95145.09;;;9.52;98.62
70559;BME280;58108;48.094;11.838;2022-09-03T03:33:07;95146.38;;;9.57;98.26
70559;BME280;58108;48.094;11.838;2022-09-03T03:35:34;95138.56;;;9.57;97.66
70559;BME280;58108;48.094;11.838;2022-09-03T03:37:59;95145.47;;;9.36;98.45
70559;BME280;58108;48.094;11.838;2022-09-03T03:40:25;95144.56;;;9.14;99.91
70559;BME280;58108;48.094;11.838;2022-09-03T03:42:50;95147.31;;;9.01;100.00
70559;BME280;58108;48.094;11.838;2022-09-03T03:45:16;95145.28;;;8.93;100.00
70559;BME280;58108;48.094;11.838;2022-09-03T03:47:41;95148.97;;;9.13;100.00
70559;BME280;58108;48.094;11.838;2022-09-03T03:50:07;95147.50;;;9.43;98.44
70559;BME280;58108;48.094;11.838;2022-09-03T03:52:32;95148.09;;;9.36;97.89
70559;BME280;58108;48.094;11.838;2022-09-03T03:54:58;95149.19;;;9.22;98.58
70559;BME280;58108;48.094;11.838;2022-09-03T03:57:23;95147.28;;;9.12;99.50
70559;BME280;58108;48.094;11.838;2022-09-03T03:59:49;95147.53;;;9.09;99.52
70559;BME280;58108;48.094;11.838;2022-09-03T04:02:15;95157.16;;;8.97;99.87
70559;BME280;58108;48.094;11.838;2022-09-03T04:04:41;95163.47;;;8.83;100.00
70559;BME280;58108;48.094;11.838;2022-09-03T04:07:07;95159.88;;;8.73;100.00
70559;BME280;58108;48.094;11.838;2022-09-03T04:09:32;95157.03;;;8.87;100.00
70559;BME280;58108;48.094;11.838;2022-09-03T04:11:58;95153.59;;;8.98;100.00
70559;BME280;58108;48.094;11.838;2022-09-03T04:14:24;95154.19;;;9.02;100.00
70559;BME280;58108;48.094;11.838;2022-09-03T04:16:51;95149.56;;;8.94;99.86
70559;BME280;58108;48.094;11.838;2022-09-03T04:19:16;95150.97;;;8.98;100.00
70559;BME280;58108;48.094;11.838;2022-09-03T04:21:42;95141.13;;;8.91;100.00
70559;BME280;58108;48.094;11.838;2022-09-03T04:24:08;95151.94;;;8.97;99.90
70559;BME280;58108;48.094;11.838;2022-09-03T04:26:33;95144.69;;;9.01;96.62
70559;BME280;58108;48.094;11.838;2022-09-03T04:29:01;95150.63;;;8.92;97.49
70559;BME280;58108;48.094;11.838;2022-09-03T04:31:27;95146.94;;;8.83;98.48
70559;BME280;58108;48.094;11.838;2022-09-03T04:33:52;95145.28;;;8.82;98.86
70559;BME280;58108;48.094;11.838;2022-09-03T04:36:21;95135.44;;;8.74;99.49
70559;BME280;58108;48.094;11.838;2022-09-03T04:38:48;95134.25;;;8.78;100.00
70559;BME280;58108;48.094;11.838;2022-09-03T04:41:16;95136.59;;;9.04;99.76
70559;BME280;58108;48.094;11.838;2022-09-03T04:43:42;95143.94;;;9.33;98.20
70559;BME280;58108;48.094;11.838;2022-09-03T04:46:08;95147.72;;;9.40;97.90
70559;BME280;58108;48.094;11.838;2022-09-03T04:48:34;95154.66;;;9.30;98.04
70559;BME280;58108;48.094;11.838;2022-09-03T04:51:12;95155.34;;;9.43;97.58
70559;BME280;58108;48.094;11.838;2022-09-03T04:53:41;95154.41;;;9.33;98.31
70559;BME280;58108;48.094;11.838;2022-09-03T04:56:14;95158.09;;;9.19;99.61
70559;BME280;58108;48.094;11.838;2022-09-03T04:58:41;95153.44;;;9.46;98.20
70559;BME280;58108;48.094;11.838;2022-09-03T05:01:29;95158.28;;;9.39;98.40
70559;BME280;58108;48.094;11.838;2022-09-03T05:03:55;95158.22;;;9.29;99.47
70559;BME280;58108;48.094;11.838;2022-09-03T05:06:22;95162.00;;;9.25;99.51
70559;BME280;58108;48.094;11.838;2022-09-03T05:08:50;95169.16;;;9.23;99.89
70559;BME280;58108;48.094;11.838;2022-09-03T05:11:17;95169.97;;;9.35;98.65
70559;BME280;58108;48.094;11.838;2022-09-03T05:13:46;95172.47;;;9.36;99.44
70559;BME280;58108;48.094;11.838;2022-09-03T05:16:12;95162.13;;;9.79;96.50
70559;BME280;58108;48.094;11.838;2022-09-03T05:18:38;95169.06;;;10.01;95.30
70559;BME280;58108;48.094;11.838;2022-09-03T05:21:06;95169.47;;;9.96;96.08
70559;BME280;58108;48.094;11.838;2022-09-03T05:23:35;95173.53;;;9.89;96.22
70559;BME280;58108;48.094;11.838;2022-09-03T05:26:03;95179.44;;;9.91;96.11
70559;BME280;58108;48.094;11.838;2022-09-03T05:28:33;95178.22;;;10.28;94.85
70559;BME280;58108;48.094;11.838;2022-09-03T05:31:01;95172.97;;;10.92;91.46
70559;BME280;58108;48.094;11.838;2022-09-03T05:33:27;95173.28;;;11.30;89.64
70559;BME280;58108;48.094;11.838;2022-09-03T05:35:54;95168.88;;;11.30;89.70
70559;BME280;58108;48.094;11.838;2022-09-03T05:38:24;95166.81;;;11.34;90.11
70559;BME280;58108;48.094;11.838;2022-09-03T05:40:49;95166.31;;;11.50;89.13
70559;BME280;58108;48.094;11.838;2022-09-03T05:43:15;95171.28;;;11.63;89.09
70559;BME280;58108;48.094;11.838;2022-09-03T05:45:41;95167.34;;;11.38;90.03
70559;BME280;58108;48.094;11.838;2022-09-03T05:48:06;95177.69;;;11.29;91.12
70559;BME280;58108;48.094;11.838;2022-09-03T05:50:31;95186.47;;;11.59;90.47
70559;BME280;58108;48.094;11.838;2022-09-03T05:52:57;95197.53;;;11.73;90.06
70559;BME280;58108;48.094;11.838;2022-09-03T05:55:22;95203.69;;;12.03;88.67
70559;BME280;58108;48.094;11.838;2022-09-03T05:57:51;95216.00;;;12.12;88.46
70559;BME280;58108;48.094;11.838;2022-09-03T06:00:16;95220.31;;;12.13;85.23
70559;BME280;58108;48.094;11.838;2022-09-03T06:02:49;95237.72;;;12.24;85.90
70559;BME280;58108;48.094;11.838;2022-09-03T06:05:15;95251.81;;;12.13;86.09
70559;BME280;58108;48.094;11.838;2022-09-03T06:07:41;95262.72;;;11.68;87.30
70559;BME280;58108;48.094;11.838;2022-09-03T06:10:06;95253.59;;;11.72;87.40
70559;BME280;58108;48.094;11.838;2022-09-03T06:12:32;95247.44;;;11.93;86.94
70559;BME280;58108;48.094;11.838;2022-09-03T06:14:57;95245.84;;;12.21;84.80
70559;BME280;58108;48.094;11.838;2022-09-03T06:17:23;95238.13;;;12.29;84.38
70559;BME280;58108;48.094;11.838;2022-09-03T06:19:48;95231.06;;;12.20;83.91
70559;BME280;58108;48.094;11.838;2022-09-03T06:22:13;95230.13;;;12.51;82.96
70559;BME280;58108;48.094;11.838;2022-09-03T06:24:39;95224.31;;;12.27;83.88
70559;BME280;58108;48.094;11.838;2022-09-03T06:27:04;95226.94;;;12.37;83.14
70559;BME280;58108;48.094;11.838;2022-09-03T06:29:29;95228.69;;;12.76;82.29
70559;BME280;58108;48.094;11.838;2022-09-03T06:31:55;95237.41;;;12.77;79.98
70559;BME280;58108;48.094;11.838;2022-09-03T06:34:21;95230.75;;;12.82;80.95
70559;BME280;58108;48.094;11.838;2022-09-03T06:36:49;95235.75;;;12.76;80.82
70559;BME280;58108;48.094;11.838;2022-09-03T06:39:15;95242.00;;;12.75;81.00
70559;BME280;58108;48.094;11.838;2022-09-03T06:41:41;95238.75;;;13.01;80.56
70559;BME280;58108;48.094;11.838;2022-09-03T06:44:07;95244.41;;;13.16;79.66
70559;BME280;58108;48.094;11.838;2022-09-03T06:46:36;95240.22;;;13.23;80.27
70559;BME280;58108;48.094;11.838;2022-09-03T06:49:09;95242.56;;;13.26;80.41
70559;BME280;58108;48.094;11.838;2022-09-03T06:51:36;95242.72;;;13.62;79.39
70559;BME280;58108;48.094;11.838;2022-09-03T06:54:07;95252.69;;;13.69;81.07
70559;BME280;58108;48.094;11.838;2022-09-03T06:56:34;95251.56;;;14.17;77.58
70559;BME280;58108;48.094;11.838;2022-09-03T06:59:04;95254.38;;;14.34;77.76
70559;BME280;58108;48.094;11.838;2022-09-03T07:01:31;95249.00;;;14.44;77.62
70559;BME280;58108;48.094;11.838;2022-09-03T07:03:59;95250.00;;;14.43;78.24
70559;BME280;58108;48.094;11.838;2022-09-03T07:06:26;95254.66;;;14.49;78.29
70559;BME280;58108;48.094;11.838;2022-09-03T07:08:52;95245.91;;;14.67;77.80
70559;BME280;58108;48.094;11.838;2022-09-03T07:11:20;95248.50;;;14.76;77.97
70559;BME280;58108;48.094;11.838;2022-09-03T07:13:50;95251.59;;;14.90;77.43
70559;BME280;58108;48.094;11.838;2022-09-03T07:16:24;95243.50;;;15.10;75.24
70559;BME280;58108;48.094;11.838;2022-09-03T07:18:50;95253.19;;;15.09;76.29
70559;BME280;58108;48.094;11.838;2022-09-03T07:21:18;95255.88;;;15.17;75.33
70559;BME280;58108;48.094;11.838;2022-09-03T07:23:44;95267.88;;;14.85;74.86
70559;BME280;58108;48.094;11.838;2022-09-03T07:26:16;95263.13;;;14.89;75.35
70559;BME280;58108;48.094;11.838;2022-09-03T07:28:44;95254.13;;;15.26;73.66
70559;BME280;58108;48.094;11.838;2022-09-03T07:31:18;95269.44;;;14.78;75.96
70559;BME280;58108;48.094;11.838;2022-09-03T07:33:45;95265.44;;;14.92;75.51
70559;BME280;58108;48.094;11.838;2022-09-03T07:36:16;95273.53;;;15.17;75.21
70559;BME280;58108;48.094;11.838;2022-09-03T07:38:43;95266.38;;;15.09;74.81
70559;BME280;58108;48.094;11.838;2022-09-03T07:41:10;95266.16;;;15.21;75.66
70559;BME280;58108;48.094;11.838;2022-09-03T07:43:41;95265.25;;;15.12;75.06
70559;BME280;58108;48.094;11.838;2022-09-03T07:46:11;95263.53;;;15.02;76.05
70559;BME280;58108;48.094;11.838;2022-09-03T07:48:40;95267.31;;;15.53;75.56
70559;BME280;58108;48.094;11.838;2022-09-03T07:51:06;95275.56;;;15.23;75.35
70559;BME280;58108;48.094;11.838;2022-09-03T07:53:33;95274.56;;;15.24;75.47
70559;BME280;58108;48.094;11.838;2022-09-03T07:56:07;95272.06;;;15.84;74.44
70559;BME280;58108;48.094;11.838;2022-09-03T07:58:33;95276.00;;;16.06;72.76
70559;BME280;58108;48.094;11.838;2022-09-03T08:01:10;95277.84;;;16.22;72.98
70559;BME280;58108;48.094;11.838;2022-09-03T08:03:37;95275.81;;;16.08;73.02
70559;BME280;58108;48.094;11.838;2022-09-03T08:06:06;95280.13;;;15.82;73.41
70559;BME280;58108;48.094;11.838;2022-09-03T08:08:32;95278.25;;;15.93;74.63
70559;BME280;58108;48.094;11.838;2022-09-03T08:13:32;95285.09;;;16.20;73.41
70559;BME280;58108;48.094;11.838;2022-09-03T08:15:57;95277.13;;;16.04;73.04
70559;BME280;58108;48.094;11.838;2022-09-03T08:18:24;95284.28;;;15.85;73.18
70559;BME280;58108;48.094;11.838;2022-09-03T08:20:51;95283.41;;;16.03;74.00
70559;BME280;58108;48.094;11.838;2022-09-03T08:23:16;95279.25;;;16.60;72.32
70559;BME280;58108;48.094;11.838;2022-09-03T08:25:42;95277.28;;;16.95;70.25
70559;BME280;58108;48.094;11.838;2022-09-03T08:28:08;95282.25;;;17.06;69.85
70559;BME280;58108;48.094;11.838;2022-09-03T08:30:34;95276.66;;;17.10;69.65
70559;BME280;58108;48.094;11.838;2022-09-03T08:33:01;95276.25;;;17.54;68.35
70559;BME280;58108;48.094;11.838;2022-09-03T08:35:29;95278.34;;;17.67;69.08
70559;BME280;58108;48.094;11.838;2022-09-03T08:37:56;95280.53;;;18.12;68.49
70559;BME280;58108;48.094;11.838;2022-09-03T08:40:21;95281.53;;;18.11;67.13
70559;BME280;58108;48.094;11.838;2022-09-03T08:43:14;95278.25;;;17.52;69.42
70559;BME280;58108;48.094;11.838;2022-09-03T08:45:41;95280.50;;;17.72;68.37
70559;BME280;58108;48.094;11.838;2022-09-03T08:48:17;95281.63;;;18.26;69.66
70559;BME280;58108;48.094;11.838;2022-09-03T08:50:47;95277.56;;;17.50;70.14
70559;BME280;58108;48.094;11.838;2022-09-03T08:53:23;95277.63;;;17.17;70.47
70559;BME280;58108;48.094;11.838;2022-09-03T08:55:57;95279.06;;;18.09;69.81
70559;BME280;58108;48.094;11.838;2022-09-03T08:58:26;95269.47;;;18.08;68.08
70559;BME280;58108;48.094;11.838;2022-09-03T09:04:04;95273.06;;;18.15;68.35
70559;BME280;58108;48.094;11.838;2022-09-03T09:06:54;95282.91;;;17.90;69.31
70559;BME280;58108;48.094;11.838;2022-09-03T09:20:49;95282.34;;;18.11;69.57
70559;BME280;58108;48.094;11.838;2022-09-03T09:23:42;95276.47;;;18.33;69.29
70559;BME280;58108;48.094;11.838;2022-09-03T09:26:14;95269.28;;;18.10;69.21
70559;BME280;58108;48.094;11.838;2022-09-03T09:28:41;95266.81;;;18.40;70.85
70559;BME280;58108;48.094;11.838;2022-09-03T09:31:10;95266.22;;;18.53;68.01
70559;BME280;58108;48.094;11.838;2022-09-03T09:33:39;95267.31;;;19.13;66.86
70559;BME280;58108;48.094;11.838;2022-09-03T09:36:07;95253.97;;;19.52;64.81
70559;BME280;58108;48.094;11.838;2022-09-03T09:38:36;95257.25;;;19.24;66.81
70559;BME280;58108;48.094;11.838;2022-09-03T09:41:16;95258.34;;;19.15;65.71
70559;BME280;58108;48.094;11.838;2022-09-03T09:43:43;95257.06;;;19.40;66.04
70559;BME280;58108;48.094;11.838;2022-09-03T09:46:24;95253.69;;;19.47;65.75
70559;BME280;58108;48.094;11.838;2022-09-03T09:48:53;95259.44;;;19.20;65.26
70559;BME280;58108;48.094;11.838;2022-09-03T09:51:24;95266.22;;;19.38;65.87
70559;BME280;58108;48.094;11.838;2022-09-03T09:54:12;95266.97;;;19.47;64.32
70559;BME280;58108;48.094;11.838;2022-09-03T09:56:38;95263.19;;;19.26;64.64
70559;BME280;58108;48.094;11.838;2022-09-03T09:59:09;95262.59;;;19.69;64.54
70559;BME280;58108;48.094;11.838;2022-09-03T10:01:37;95266.19;;;19.76;63.67
70559;BME280;58108;48.094;11.838;2022-09-03T10:04:11;95258.56;;;19.88;63.86
70559;BME280;58108;48.094;11.838;2022-09-03T10:06:38;95255.41;;;20.88;61.58
70559;BME280;58108;48.094;11.838;2022-09-03T10:09:22;95250.31;;;20.94;59.70
70559;BME280;58108;48.094;11.838;2022-09-03T10:11:53;95248.41;;;21.09;59.69
70559;BME280;58108;48.094;11.838;2022-09-03T10:14:31;95249.59;;;21.64;60.09
70559;BME280;58108;48.094;11.838;2022-09-03T10:22:46;95245.47;;;21.61;56.17
70559;BME280;58108;48.094;11.838;2022-09-03T10:25:14;95248.34;;;20.81;58.50
70559;BME280;58108;48.094;11.838;2022-09-03T10:27:42;95249.72;;;21.20;57.63
70559;BME280;58108;48.094;11.838;2022-09-03T10:30:10;95255.72;;;20.42;57.11
70559;BME280;58108;48.094;11.838;2022-09-03T10:35:31;95256.47;;;21.16;56.39
70559;BME280;58108;48.094;11.838;2022-09-03T10:43:39;95258.44;;;22.55;54.92
70559;BME280;58108;48.094;11.838;2022-09-03T10:46:15;95256.75;;;21.92;54.19
70559;BME280;58108;48.094;11.838;2022-09-03T10:51:11;95254.47;;;22.44;53.62
70559;BME280;58108;48.094;11.838;2022-09-03T10:53:50;95244.47;;;21.97;53.54
70559;BME280;58108;48.094;11.838;2022-09-03T10:56:31;95245.22;;;21.84;54.17
70559;BME280;58108;48.094;11.838;2022-09-03T11:02:06;95239.63;;;23.04;52.77
70559;BME280;58108;48.094;11.838;2022-09-03T11:07:44;95231.94;;;23.68;51.64
70559;BME280;58108;48.094;11.838;2022-09-03T11:10:17;95233.28;;;23.32;51.78
70559;BME280;58108;48.094;11.838;2022-09-03T11:12:56;95236.22;;;23.83;52.85
70559;BME280;58108;48.094;11.838;2022-09-03T11:15:33;95229.00;;;23.90;50.33
70559;BME280;58108;48.094;11.838;2022-09-03T11:18:15;95225.94;;;23.86;49.09
70559;BME280;58108;48.094;11.838;2022-09-03T11:20:46;95230.25;;;23.94;50.96
70559;BME280;58108;48.094;11.838;2022-09-03T11:23:13;95222.50;;;24.25;52.99
70559;BME280;58108;48.094;11.838;2022-09-03T11:25:47;95212.72;;;24.51;50.11
70559;BME280;58108;48.094;11.838;2022-09-03T11:36:35;95211.25;;;23.16;48.08
70559;BME280;58108;48.094;11.838;2022-09-03T11:41:43;95207.81;;;25.31;51.23
70559;BME280;58108;48.094;11.838;2022-09-03T11:44:21;95206.59;;;26.57;47.30
70559;BME280;58108;48.094;11.838;2022-09-03T11:46:55;95200.78;;;26.11;45.35
70559;BME280;58108;48.094;11.838;2022-09-03T11:49:28;95191.75;;;25.49;46.05
70559;BME280;58108;48.094;11.838;2022-09-03T11:52:02;95200.91;;;26.35;45.53
70559;BME280;58108;48.094;11.838;2022-09-03T11:54:31;95196.00;;;26.86;47.30
70559;BME280;58108;48.094;11.838;2022-09-03T11:57:12;95198.81;;;27.58;40.97
70559;BME280;58108;48.094;11.838;2022-09-03T11:59:41;95195.25;;;27.93;40.32
70559;BME280;58108;48.094;11.838;2022-09-03T12:02:24;95197.91;;;26.43;43.09
70559;BME280;58108;48.094;11.838;2022-09-03T12:07:41;95188.47;;;26.03;41.70
70559;BME280;58108;48.094;11.838;2022-09-03T12:10:57;95179.81;;;25.26;41.53
70559;BME280;58108;48.094;11.838;2022-09-03T12:13:15;95178.31;;;26.43;40.81
70559;BME280;58108;48.094;11.838;2022-09-03T12:15:57;95176.09;;;26.52;39.49
70559;BME280;58108;48.094;11.838;2022-09-03T12:18:28;95165.47;;;27.59;42.35
70559;BME280;58108;48.094;11.838;2022-09-03T12:26:04;95161.66;;;32.08;37.32
70559;BME280;58108;48.094;11.838;2022-09-03T12:28:33;95160.22;;;32.95;33.03
70559;BME280;58108;48.094;11.838;2022-09-03T12:31:18;95163.34;;;32.25;31.56
70559;BME280;58108;48.094;11.838;2022-09-03T12:34:00;95155.28;;;33.54;31.01
70559;BME280;58108;48.094;11.838;2022-09-03T12:36:36;95160.75;;;33.28;31.96
70559;BME280;58108;48.094;11.838;2022-09-03T12:39:15;95166.34;;;33.79;32.74
70559;BME280;58108;48.094;11.838;2022-09-03T12:47:14;95144.97;;;31.73;35.31
70559;BME280;58108;48.094;11.838;2022-09-03T12:49:46;95155.34;;;33.13;32.96
70559;BME280;58108;48.094;11.838;2022-09-03T12:52:25;95157.50;;;33.21;28.39
70559;BME280;58108;48.094;11.838;2022-09-03T12:54:56;95148.22;;;33.33;30.84
70559;BME280;58108;48.094;11.838;2022-09-03T12:57:33;95144.59;;;32.18;29.46
70559;BME280;58108;48.094;11.838;2022-09-03T13:00:05;95144.41;;;31.23;35.72
70559;BME280;58108;48.094;11.838;2022-09-03T13:02:54;95138.75;;;32.78;31.66
70559;BME280;58108;48.094;11.838;2022-09-03T13:08:46;95128.72;;;32.42;32.88
70559;BME280;58108;48.094;11.838;2022-09-03T13:11:19;95126.25;;;33.39;29.08
70559;BME280;58108;48.094;11.838;2022-09-03T13:14:06;95118.22;;;33.85;27.61
70559;BME280;58108;48.094;11.838;2022-09-03T13:22:38;95112.97;;;33.22;30.69
70559;BME280;58108;48.094;11.838;2022-09-03T13:25:34;95105.91;;;32.23;32.87
70559;BME280;58108;48.094;11.838;2022-09-03T13:31:56;95113.19;;;35.27;28.92
70559;BME280;58108;48.094;11.838;2022-09-03T13:33:54;95112.72;;;34.00;27.10
70559;BME280;58108;48.094;11.838;2022-09-03T13:36:25;95122.84;;;35.14;28.72
70559;BME280;58108;48.094;11.838;2022-09-03T13:39:23;95122.91;;;36.07;27.03
70559;BME280;58108;48.094;11.838;2022-09-03T13:41:54;95132.91;;;35.92;27.52
70559;BME280;58108;48.094;11.838;2022-09-03T13:45:00;95131.44;;;36.63;25.32
70559;BME280;58108;48.094;11.838;2022-09-03T13:47:39;95137.53;;;36.16;27.46
70559;BME280;58108;48.094;11.838;2022-09-03T13:50:28;95139.16;;;36.36;25.92
70559;BME280;58108;48.094;11.838;2022-09-03T13:55:32;95130.34;;;30.55;32.53
70559;BME280;58108;48.094;11.838;2022-09-03T13:58:15;95128.13;;;29.97;34.80
70559;BME280;58108;48.094;11.838;2022-09-03T14:00:51;95122.41;;;28.92;35.75
70559;BME280;58108;48.094;11.838;2022-09-03T14:03:31;95114.97;;;27.13;41.13
70559;BME280;58108;48.094;11.838;2022-09-03T14:06:18;95124.38;;;26.14;42.66
70559;BME280;58108;48.094;11.838;2022-09-03T14:09:10;95126.31;;;25.57;48.60
70559;BME280;58108;48.094;11.838;2022-09-03T14:20:01;95131.25;;;24.40;48.35
70559;BME280;58108;48.094;11.838;2022-09-03T14:22:46;95136.19;;;24.04;49.54
70559;BME280;58108;48.094;11.838;2022-09-03T14:25:16;95142.03;;;23.81;50.67
70559;BME280;58108;48.094;11.838;2022-09-03T14:27:41;95139.69;;;23.45;51.38
70559;BME280;58108;48.094;11.838;2022-09-03T14:30:48;95134.81;;;23.15;52.87
70559;BME280;58108;48.094;11.838;2022-09-03T14:33:35;95142.03;;;22.74;53.27
70559;BME280;58108;48.094;11.838;2022-09-03T14:36:26;95144.72;;;22.67;53.96
70559;BME280;58108;48.094;11.838;2022-09-03T14:39:33;95148.13;;;22.34;55.41
70559;BME280;58108;48.094;11.838;2022-09-03T14:42:12;95147.91;;;22.09;56.72
70559;BME280;58108;48.094;11.838;2022-09-03T14:50:36;95162.78;;;21.41;58.95
70559;BME280;58108;48.094;11.838;2022-09-03T14:56:01;95180.34;;;21.00;63.44
70559;BME280;58108;48.094;11.838;2022-09-03T14:58:34;95170.63;;;19.53;64.01
70559;BME280;58108;48.094;11.838;2022-09-03T15:01:21;95233.91;;;18.26;67.68
70559;BME280;58108;48.094;11.838;2022-09-03T15:07:12;95289.81;;;15.92;80.62
70559;BME280;58108;48.094;11.838;2022-09-03T15:12:37;95297.78;;;14.76;90.73
70559;BME280;58108;48.094;11.838;2022-09-03T15:15:09;95307.78;;;15.09;89.31
70559;BME280;58108;48.094;11.838;2022-09-03T15:20:33;95321.72;;;14.83;96.94
70559;BME280;58108;48.094;11.838;2022-09-03T15:36:50;95330.59;;;15.71;96.14
70559;BME280;58108;48.094;11.838;2022-09-03T15:39:22;95346.63;;;15.51;98.90
70559;BME280;58108;48.094;11.838;2022-09-03T15:41:58;95346.31;;;15.28;100.00
70559;BME280;58108;48.094;11.838;2022-09-03T15:44:33;95350.50;;;15.12;100.00
70559;BME280;58108;48.094;11.838;2022-09-03T15:46:59;95350.84;;;15.17;97.74